Time;durP1;ratioP1;P1;durP2;ratioP2;P2;SDS_P1;SDS_P2;PMS_P1;PMS_P2;Temp;Humidity;BMP_temperature;BMP_pressure;BME280_temperature;BME280_humidity;BME280_pressure;Samples;Min_cycle;Max_cycle;Signal;HPM_P1;HPM_P2
2021/03/09 00:01:50;;;;;;;5.35;2.60;;;4.60;77.10;;;;;;4974366;28;20043;-77
2021/03/09 00:04:15;;;;;;;7.55;3.83;;;4.60;77.20;;;;;;4974403;28;20544;-75
2021/03/09 00:06:41;;;;;;;6.97;3.30;;;4.50;77.30;;;;;;4956671;28;20043;-75
2021/03/09 00:09:07;;;;;;;6.50;3.35;;;4.50;77.40;;;;;;4956956;28;20047;-78
2021/03/09 00:11:32;;;;;;;6.38;3.17;;;4.50;77.50;;;;;;4973928;28;20074;-78
2021/03/09 00:13:58;;;;;;;6.90;3.17;;;4.50;77.70;;;;;;4974101;28;20470;-78
2021/03/09 00:16:24;;;;;;;6.68;2.83;;;4.50;77.80;;;;;;4974290;28;20051;-76
2021/03/09 00:18:49;;;;;;;6.28;2.88;;;4.40;77.80;;;;;;4974509;28;20039;-76
2021/03/09 00:21:15;;;;;;;5.07;2.40;;;4.50;78.00;;;;;;4974228;28;20054;-78
2021/03/09 00:23:41;;;;;;;4.40;2.30;;;4.40;78.00;;;;;;4974744;28;20393;-78
2021/03/09 00:26:06;;;;;;;4.32;2.13;;;4.40;78.10;;;;;;4974113;28;20496;-77
2021/03/09 00:28:32;;;;;;;4.30;2.10;;;4.40;78.20;;;;;;4974637;28;20174;-77
2021/03/09 00:30:58;;;;;;;4.10;2.13;;;4.50;78.30;;;;;;4957484;28;20046;-79
2021/03/09 00:33:24;;;;;;;4.10;2.20;;;4.40;78.30;;;;;;4957133;28;20118;-76
2021/03/09 00:35:52;;;;;;;3.85;1.85;;;4.40;79.00;;;;;;4974083;28;20058;-78
2021/03/09 00:38:18;;;;;;;2.70;1.35;;;4.30;78.40;;;;;;4956522;28;20055;-78
2021/03/09 00:40:43;;;;;;;3.08;1.63;;;4.40;78.50;;;;;;4974494;28;20041;-78
2021/03/09 00:43:09;;;;;;;4.82;1.83;;;4.30;78.50;;;;;;4974345;28;20382;-78
2021/03/09 00:45:35;;;;;;;3.78;1.60;;;4.40;78.70;;;;;;4925450;28;20038;-77
2021/03/09 00:48:00;;;;;;;2.88;1.60;;;4.40;78.70;;;;;;4974145;28;20033;-76
2021/03/09 00:50:26;;;;;;;3.05;1.60;;;4.40;78.70;;;;;;4973960;28;20183;-77
2021/03/09 00:52:52;;;;;;;4.13;1.90;;;4.30;78.70;;;;;;4956571;28;20528;-76
2021/03/09 00:55:18;;;;;;;4.28;1.88;;;4.40;78.90;;;;;;4973679;28;20098;-76
2021/03/09 00:57:43;;;;;;;5.82;1.98;;;4.30;78.80;;;;;;4973617;28;20057;-75
2021/03/09 01:00:10;;;;;;;4.20;2.05;;;4.40;78.90;;;;;;4974151;28;20089;-76
2021/03/09 01:02:36;;;;;;;4.72;2.15;;;4.30;78.90;;;;;;4974157;28;20030;-76
2021/03/09 01:05:02;;;;;;;4.38;2.30;;;4.30;79.00;;;;;;4974983;28;20030;-79
2021/03/09 01:07:28;;;;;;;5.57;2.47;;;4.30;79.10;;;;;;4956707;28;20043;-78
2021/03/09 01:09:54;;;;;;;4.85;2.40;;;4.30;79.10;;;;;;4973881;28;20507;-78
2021/03/09 01:12:19;;;;;;;5.10;2.60;;;4.30;79.20;;;;;;4973830;28;20113;-78
2021/03/09 01:15:32;;;;;;;4.90;2.10;;;4.30;79.30;;;;;;4956626;28;20027;-79
2021/03/09 01:17:58;;;;;;;4.38;1.95;;;4.30;79.30;;;;;;4893163;29;20411;-77
2021/03/09 01:20:24;;;;;;;4.45;2.03;;;4.30;79.30;;;;;;4894875;29;20044;-77
2021/03/09 01:22:50;;;;;;;4.97;2.30;;;4.30;79.30;;;;;;4894853;29;21320;-77
2021/03/09 01:25:16;;;;;;;4.88;2.50;;;4.20;79.30;;;;;;4895466;29;20049;-78
2021/03/09 01:27:42;;;;;;;4.82;2.40;;;4.20;79.50;;;;;;4879092;29;20539;-78
2021/03/09 01:30:09;;;;;;;4.68;2.38;;;4.30;79.60;;;;;;4894834;29;20337;-78
2021/03/09 01:32:36;;;;;;;4.28;2.20;;;4.30;79.70;;;;;;4879093;29;20060;-73
2021/03/09 01:35:04;;;;;;;4.38;2.03;;;4.20;79.70;;;;;;4894657;29;20059;-74
2021/03/09 01:37:29;;;;;;;6.85;2.67;;;4.20;79.80;;;;;;4879532;29;20044;-76
2021/03/09 01:39:55;;;;;;;5.40;2.58;;;4.20;79.90;;;;;;4878964;29;20141;-74
2021/03/09 01:42:21;;;;;;;7.05;3.03;;;4.20;80.00;;;;;;4895467;29;20089;-76
2021/03/09 01:44:47;;;;;;;7.40;3.00;;;4.30;80.10;;;;;;4894747;29;20060;-76
2021/03/09 01:47:14;;;;;;;6.78;2.83;;;4.20;80.10;;;;;;4894861;29;20075;-76
2021/03/09 01:49:40;;;;;;;5.30;2.97;;;4.30;80.30;;;;;;4894422;29;20093;-77
2021/03/09 01:52:08;;;;;;;7.43;3.78;;;4.20;80.90;;;;;;4878771;29;20564;-75
2021/03/09 01:54:35;;;;;;;5.65;2.72;;;4.20;80.30;;;;;;4929814;28;20062;-74
2021/03/09 01:57:02;;;;;;;6.80;3.28;;;4.20;80.40;;;;;;4973103;28;20042;-76
2021/03/09 01:59:29;;;;;;;9.00;4.43;;;4.20;80.40;;;;;;4971172;28;20477;-74
2021/03/09 02:01:55;;;;;;;7.57;3.88;;;4.20;80.60;;;;;;4972930;28;20066;-74
2021/03/09 02:04:21;;;;;;;7.00;3.45;;;4.10;80.60;;;;;;4972586;28;20046;-80
2021/03/09 02:06:46;;;;;;;8.75;4.03;;;4.10;80.70;;;;;;4970893;28;20043;-77
2021/03/09 02:09:13;;;;;;;8.25;3.47;;;4.10;80.70;;;;;;4972818;28;20059;-78
2021/03/09 02:12:06;;;;;;;9.68;4.47;;;4.10;80.80;;;;;;4972166;28;20051;-77
2021/03/09 02:15:05;;;;;;;9.05;4.10;;;4.20;81.00;;;;;;4973081;28;20106;-79
2021/03/09 02:17:39;;;;;;;8.30;4.13;;;4.10;81.00;;;;;;4958014;28;20046;-78
2021/03/09 02:20:31;;;;;;;8.75;4.40;;;4.10;81.10;;;;;;4955342;28;20047;-79
2021/03/09 02:23:17;;;;;;;10.32;4.65;;;4.10;81.20;;;;;;4972552;28;20397;-79
2021/03/09 02:26:15;;;;;;;7.88;3.63;;;4.30;81.30;;;;;;4955036;28;20635;-78
2021/03/09 02:29:15;;;;;;;6.75;3.70;;;4.10;81.30;;;;;;4972709;28;20027;-78
2021/03/09 02:31:44;;;;;;;7.50;4.18;;;4.10;81.30;;;;;;4960256;28;20042;-77
2021/03/09 02:34:14;;;;;;;7.15;3.67;;;4.20;81.30;;;;;;4972127;28;20405;-78
2021/03/09 02:36:41;;;;;;;6.90;3.20;;;4.20;81.30;;;;;;4923469;28;20042;-77
2021/03/09 02:39:11;;;;;;;8.60;3.50;;;4.20;81.40;;;;;;4972303;28;20047;-77
2021/03/09 02:41:44;;;;;;;6.78;3.35;;;4.20;81.40;;;;;;4955522;28;20043;-81
2021/03/09 02:44:13;;;;;;;7.32;3.60;;;4.20;81.60;;;;;;4954797;28;20421;-81
2021/03/09 02:46:41;;;;;;;9.20;3.97;;;4.20;81.60;;;;;;4971067;28;20050;-82
2021/03/09 02:49:09;;;;;;;9.00;4.15;;;4.20;81.70;;;;;;4955370;28;20158;-79
2021/03/09 02:51:37;;;;;;;10.55;5.10;;;4.20;81.70;;;;;;4971808;28;20101;-78
2021/03/09 02:54:05;;;;;;;8.52;4.60;;;4.20;81.80;;;;;;4970723;28;20133;-78
2021/03/09 02:56:32;;;;;;;8.77;3.95;;;4.20;81.80;;;;;;4971967;28;20485;-78
2021/03/09 02:59:00;;;;;;;8.30;3.72;;;4.20;81.80;;;;;;4955123;28;20043;-78
2021/03/09 03:01:28;;;;;;;7.93;3.47;;;4.20;81.90;;;;;;4972300;28;20047;-80
2021/03/09 03:03:54;;;;;;;9.85;3.80;;;4.20;82.00;;;;;;4971918;28;20038;-78
2021/03/09 03:06:21;;;;;;;9.25;4.97;;;4.30;82.10;;;;;;4971975;28;20038;-78
2021/03/09 03:08:48;;;;;;;9.35;4.80;;;4.20;82.00;;;;;;4970676;28;20051;-79
2021/03/09 03:11:15;;;;;;;9.18;4.57;;;4.30;82.10;;;;;;4972246;28;20047;-77
2021/03/09 03:13:42;;;;;;;9.75;4.88;;;4.20;82.10;;;;;;4971864;28;20031;-78
2021/03/09 03:16:11;;;;;;;7.95;3.92;;;4.30;82.30;;;;;;4971884;28;20035;-78
2021/03/09 03:18:40;;;;;;;8.50;4.63;;;4.20;82.30;;;;;;4971611;28;20101;-78
2021/03/09 03:21:09;;;;;;;10.68;5.38;;;4.20;82.30;;;;;;4972764;28;20042;-78
2021/03/09 03:23:36;;;;;;;11.02;5.63;;;4.20;82.40;;;;;;4971858;28;20485;-78
2021/03/09 03:26:05;;;;;;;10.57;5.47;;;4.20;82.40;;;;;;4971616;28;20437;-78
2021/03/09 03:28:34;;;;;;;9.38;4.82;;;4.30;82.50;;;;;;4956578;28;20043;-79
2021/03/09 03:31:01;;;;;;;9.90;4.82;;;4.30;82.60;;;;;;4958082;28;20058;-80
2021/03/09 03:33:28;;;;;;;9.52;4.65;;;4.30;82.60;;;;;;4975362;28;20065;-79
2021/03/09 03:35:54;;;;;;;10.90;5.47;;;4.20;82.60;;;;;;4975041;28;20110;-78
2021/03/09 03:38:21;;;;;;;9.50;4.63;;;4.20;82.70;;;;;;4974651;28;20065;-79
2021/03/09 03:40:47;;;;;;;10.32;5.05;;;4.30;82.80;;;;;;4974738;28;20042;-79
2021/03/09 03:43:13;;;;;;;9.18;4.75;;;4.30;82.80;;;;;;4957725;28;20035;-79
2021/03/09 03:45:38;;;;;;;11.77;5.47;;;4.30;82.80;;;;;;4974819;28;20050;-79
2021/03/09 03:48:05;;;;;;;10.15;5.25;;;4.30;82.90;;;;;;4957461;28;20514;-79
2021/03/09 03:50:31;;;;;;;11.25;5.35;;;4.30;83.00;;;;;;4957794;28;20581;-79
2021/03/09 03:53:21;;;;;;;11.90;6.03;;;4.40;83.10;;;;;;4975120;28;20060;-78
2021/03/09 03:56:21;;;;;;;9.88;5.07;;;4.30;83.10;;;;;;4973188;28;20043;-81
2021/03/09 03:58:51;;;;;;;10.90;5.60;;;4.20;83.10;;;;;;4973074;28;20047;-79
2021/03/09 04:01:20;;;;;;;10.93;5.00;;;4.30;83.10;;;;;;4974654;28;20038;-79
2021/03/09 04:03:50;;;;;;;11.15;5.13;;;4.30;83.20;;;;;;4975039;28;20516;-79
2021/03/09 04:06:17;;;;;;;11.48;5.35;;;4.20;83.20;;;;;;4975057;28;20417;-80
2021/03/09 04:08:43;;;;;;;9.88;5.35;;;4.30;83.30;;;;;;4957986;28;20031;-79
2021/03/09 04:11:10;;;;;;;12.75;6.78;;;4.30;83.40;;;;;;4975004;28;20041;-78
2021/03/09 04:13:42;;;;;;;14.38;7.13;;;4.30;83.40;;;;;;4956831;28;20042;-79
2021/03/09 04:16:10;;;;;;;12.77;6.35;;;4.30;83.40;;;;;;4974121;28;20693;-79
2021/03/09 04:18:39;;;;;;;13.35;7.00;;;4.30;83.50;;;;;;4974040;28;20043;-80
2021/03/09 04:21:06;;;;;;;11.60;6.28;;;4.30;83.50;;;;;;4974197;28;20053;-79
2021/03/09 04:23:33;;;;;;;12.80;6.53;;;4.30;83.50;;;;;;4957368;28;20544;-79
2021/03/09 04:26:01;;;;;;;10.18;5.80;;;4.40;83.60;;;;;;4974130;28;20113;-79
2021/03/09 04:28:27;;;;;;;13.77;6.75;;;4.30;83.60;;;;;;4956781;28;20391;-79
2021/03/09 04:30:54;;;;;;;12.43;7.00;;;4.30;83.70;;;;;;4974315;28;20154;-78
2021/03/09 04:33:20;;;;;;;10.82;5.60;;;4.40;83.80;;;;;;4974250;28;20046;-78
2021/03/09 04:35:45;;;;;;;10.68;5.82;;;4.30;83.70;;;;;;4974230;28;20047;-78
2021/03/09 04:38:12;;;;;;;10.00;4.97;;;4.30;83.70;;;;;;4973151;28;20441;-79
2021/03/09 04:40:38;;;;;;;11.20;5.50;;;4.40;83.90;;;;;;4974068;28;20039;-79
2021/03/09 04:43:05;;;;;;;10.43;5.28;;;4.40;83.90;;;;;;4973772;28;20425;-78
2021/03/09 04:45:31;;;;;;;10.02;5.20;;;4.40;83.90;;;;;;4973906;28;20090;-78
2021/03/09 04:48:00;;;;;;;10.10;5.22;;;4.40;84.00;;;;;;4973747;28;20102;-79
2021/03/09 04:50:28;;;;;;;9.82;4.55;;;4.40;84.10;;;;;;4973649;28;20102;-78
2021/03/09 04:52:54;;;;;;;10.52;5.63;;;4.40;84.10;;;;;;4974078;28;20500;-78
2021/03/09 04:55:24;;;;;;;9.05;5.07;;;4.40;84.20;;;;;;4956354;28;20066;-79
2021/03/09 04:57:50;;;;;;;10.85;5.65;;;4.40;84.20;;;;;;4956979;28;20034;-79
2021/03/09 05:00:18;;;;;;;12.05;6.60;;;4.30;84.20;;;;;;4956222;28;20049;-79
2021/03/09 05:02:46;;;;;;;10.13;5.15;;;4.50;84.40;;;;;;4972484;28;20067;-79
2021/03/09 05:05:13;;;;;;;10.52;5.45;;;4.40;84.30;;;;;;4956310;28;20067;-80
2021/03/09 05:07:39;;;;;;;10.73;5.53;;;4.40;84.40;;;;;;4956479;28;20039;-79
2021/03/09 05:10:06;;;;;;;10.70;5.47;;;4.40;84.40;;;;;;4973775;28;20118;-79
2021/03/09 05:12:32;;;;;;;9.52;5.35;;;4.40;84.50;;;;;;4973751;28;20401;-80
2021/03/09 05:14:58;;;;;;;9.30;5.40;;;4.40;84.50;;;;;;4973545;28;20050;-80
2021/03/09 05:17:24;;;;;;;13.68;6.80;;;4.40;84.50;;;;;;4973981;28;20362;-79
2021/03/09 05:19:50;;;;;;;12.27;6.03;;;4.40;84.60;;;;;;4973424;28;20054;-79
2021/03/09 05:22:15;;;;;;;11.00;5.25;;;4.40;84.60;;;;;;4973582;28;20047;-79
2021/03/09 05:24:41;;;;;;;11.52;5.80;;;4.40;84.70;;;;;;4956096;28;20067;-79
2021/03/09 05:27:09;;;;;;;9.55;5.30;;;4.40;84.70;;;;;;4973942;28;20070;-79
2021/03/09 05:29:35;;;;;;;10.38;5.00;;;4.40;84.70;;;;;;4956537;28;20133;-79
2021/03/09 05:32:01;;;;;;;9.30;4.97;;;4.40;84.80;;;;;;4973462;28;20054;-80
2021/03/09 05:34:26;;;;;;;9.73;5.07;;;4.50;84.80;;;;;;4956225;28;20050;-79
2021/03/09 05:36:52;;;;;;;9.55;4.82;;;4.40;84.80;;;;;;4973661;28;20043;-78
2021/03/09 05:39:18;;;;;;;10.85;5.50;;;4.40;84.80;;;;;;4956381;28;20071;-79
2021/03/09 05:41:44;;;;;;;10.38;4.97;;;4.50;84.90;;;;;;4956228;28;20401;-79
2021/03/09 05:44:10;;;;;;;10.15;4.32;;;4.40;84.90;;;;;;4973562;28;20043;-78
2021/03/09 05:46:36;;;;;;;9.52;4.55;;;4.60;85.10;;;;;;4956373;28;20127;-79
2021/03/09 05:49:01;;;;;;;9.18;4.45;;;4.40;85.00;;;;;;4955947;28;20055;-79
2021/03/09 05:51:30;;;;;;;8.82;4.70;;;4.50;85.10;;;;;;4972631;28;20066;-79
2021/03/09 05:53:57;;;;;;;9.60;4.80;;;4.40;85.10;;;;;;4956221;28;20039;-79
2021/03/09 05:56:23;;;;;;;8.45;4.75;;;4.50;85.10;;;;;;4972233;28;20039;-79
2021/03/09 05:58:50;;;;;;;10.05;4.60;;;4.50;85.20;;;;;;4940153;28;20065;-78
2021/03/09 06:01:15;;;;;;;10.32;4.90;;;4.40;85.10;;;;;;4971806;28;20386;-78
2021/03/09 06:03:42;;;;;;;9.75;4.57;;;4.60;85.30;;;;;;4973250;28;20067;-79
2021/03/09 06:06:08;;;;;;;8.85;4.75;;;4.40;85.10;;;;;;4956017;28;20057;-79
2021/03/09 06:08:34;;;;;;;9.82;4.85;;;4.50;85.20;;;;;;4972768;28;20057;-82
2021/03/09 06:11:13;;;;;;;10.27;5.15;;;4.50;85.30;;;;;;4972966;28;20043;-78
2021/03/09 06:13:39;;;;;;;9.95;4.38;;;4.50;85.40;;;;;;4972819;28;20042;-79
2021/03/09 06:16:04;;;;;;;11.77;5.40;;;4.50;85.30;;;;;;4923512;28;20186;-79
2021/03/09 06:18:30;;;;;;;7.47;3.83;;;4.50;85.40;;;;;;4973074;28;20046;-78
2021/03/09 06:21:13;;;;;;;7.20;4.07;;;4.50;85.40;;;;;;4972766;28;20035;-78
2021/03/09 06:23:41;;;;;;;7.88;4.00;;;4.50;85.50;;;;;;4955802;28;20445;-78
2021/03/09 06:26:38;;;;;;;7.72;4.35;;;4.60;85.50;;;;;;4974172;28;20054;-78
2021/03/09 06:29:14;;;;;;;8.55;4.13;;;4.50;85.50;;;;;;4973050;28;20051;-78
2021/03/09 06:32:01;;;;;;;8.63;4.13;;;4.50;85.40;;;;;;4972931;28;20457;-77
2021/03/09 06:34:30;;;;;;;8.45;4.00;;;4.50;85.50;;;;;;4971702;28;20051;-78
2021/03/09 06:37:06;;;;;;;8.88;4.25;;;4.60;85.60;;;;;;4955794;28;20045;-78
2021/03/09 06:39:45;;;;;;;7.97;4.15;;;4.70;85.60;;;;;;4972908;28;20039;-78
2021/03/09 06:42:12;;;;;;;9.88;4.85;;;4.50;85.50;;;;;;4973894;28;20035;-78
2021/03/09 06:44:38;;;;;;;9.80;4.78;;;4.60;85.60;;;;;;4972587;28;20043;-78
2021/03/09 06:47:05;;;;;;;9.52;4.78;;;4.50;85.50;;;;;;4971084;28;20055;-78
2021/03/09 06:49:47;;;;;;;8.60;4.10;;;4.60;85.60;;;;;;4973230;28;20067;-81
2021/03/09 06:52:13;;;;;;;10.68;5.00;;;4.60;85.60;;;;;;4942462;28;20118;-78
2021/03/09 06:54:43;;;;;;;10.55;5.40;;;4.60;85.60;;;;;;4972414;28;20050;-78
2021/03/09 06:57:10;;;;;;;9.57;5.07;;;4.70;85.60;;;;;;4972809;28;20133;-78
2021/03/09 06:59:36;;;;;;;12.18;6.05;;;4.60;85.60;;;;;;4972369;28;20046;-78
2021/03/09 07:02:13;;;;;;;11.90;6.43;;;4.70;85.70;;;;;;4974488;28;20532;-79
2021/03/09 07:04:41;;;;;;;13.35;6.57;;;4.80;85.80;;;;;;4975673;28;20093;-78
2021/03/09 07:07:09;;;;;;;10.88;5.93;;;4.70;85.70;;;;;;4977294;28;20047;-76
2021/03/09 07:09:35;;;;;;;14.30;6.72;;;4.70;85.80;;;;;;4979727;28;20409;-76
2021/03/09 07:12:03;;;;;;;12.25;7.22;;;4.80;85.80;;;;;;4976385;28;20066;-76
2021/03/09 07:14:32;;;;;;;12.25;6.43;;;4.80;85.90;;;;;;4976286;28;20170;-76
2021/03/09 07:17:01;;;;;;;13.80;7.57;;;4.80;85.90;;;;;;4979273;28;20134;-77
2021/03/09 07:19:36;;;;;;;13.25;7.22;;;4.80;85.80;;;;;;4975729;28;20051;-76
2021/03/09 07:22:05;;;;;;;12.75;6.97;;;4.80;85.90;;;;;;4976663;28;20045;-78
2021/03/09 07:24:32;;;;;;;12.63;6.95;;;4.80;85.90;;;;;;4961690;28;20035;-77
2021/03/09 07:27:05;;;;;;;16.05;8.55;;;4.80;85.90;;;;;;4978088;28;20463;-76
2021/03/09 07:29:34;;;;;;;11.43;6.53;;;4.80;86.00;;;;;;4977455;28;20077;-76
2021/03/09 07:32:01;;;;;;;12.23;6.63;;;4.90;86.70;;;;;;4976216;28;20043;-76
2021/03/09 07:34:29;;;;;;;10.88;5.22;;;4.90;86.10;;;;;;4958592;28;20042;-77
2021/03/09 07:36:55;;;;;;;11.13;5.40;;;5.00;86.20;;;;;;4975190;28;20094;-76
2021/03/09 07:39:22;;;;;;;10.48;5.75;;;4.90;86.10;;;;;;4975629;28;20039;-76
2021/03/09 07:41:49;;;;;;;11.55;5.18;;;5.00;86.20;;;;;;4975176;28;20031;-77
2021/03/09 07:44:16;;;;;;;10.77;5.47;;;4.90;86.10;;;;;;4958479;28;20023;-77
2021/03/09 07:46:42;;;;;;;8.93;4.40;;;5.10;86.30;;;;;;4974967;28;20034;-76
2021/03/09 07:49:08;;;;;;;10.48;4.70;;;5.10;86.30;;;;;;4975140;28;20042;-77
2021/03/09 07:51:33;;;;;;;11.63;5.60;;;5.10;86.20;;;;;;4974774;28;20126;-76
2021/03/09 07:54:14;;;;;;;7.78;4.57;;;5.30;86.40;;;;;;4974667;28;20097;-76
2021/03/09 07:57:16;;;;;;;8.60;4.50;;;5.20;86.40;;;;;;4957944;28;20437;-76
2021/03/09 07:59:56;;;;;;;7.85;3.83;;;5.20;86.30;;;;;;4975042;28;20059;-76
2021/03/09 08:02:38;;;;;;;7.80;3.35;;;5.20;86.30;;;;;;4975323;28;20144;-76
2021/03/09 08:05:06;;;;;;;7.43;3.92;;;5.30;86.30;;;;;;4974609;28;20042;-76
2021/03/09 08:07:51;;;;;;;8.85;4.43;;;5.30;86.20;;;;;;4975989;28;20109;-76
2021/03/09 08:10:39;;;;;;;8.25;4.10;;;5.40;86.30;;;;;;4957134;28;20662;-75
2021/03/09 08:17:01;;;;;;;5.85;3.03;;;5.50;86.30;;;;;;4973814;28;20085;-82
2021/03/09 08:19:45;;;;;;;6.25;2.92;;;5.60;86.30;;;;;;4956472;28;20567;-79
2021/03/09 08:22:11;;;;;;;6.43;2.85;;;5.60;86.20;;;;;;4956530;28;20069;-76
2021/03/09 08:24:52;;;;;;;5.38;2.58;;;5.60;86.10;;;;;;4957274;28;20047;-76
2021/03/09 08:27:30;;;;;;;6.60;2.60;;;5.70;86.20;;;;;;4941499;28;20046;-76
2021/03/09 08:29:57;;;;;;;5.05;2.50;;;5.70;86.20;;;;;;4974386;28;20035;-77
2021/03/09 08:32:28;;;;;;;4.72;2.47;;;5.70;86.20;;;;;;4974235;28;20035;-77
2021/03/09 08:35:28;;;;;;;5.57;2.50;;;5.70;86.30;;;;;;4957011;28;20043;-76
2021/03/09 08:38:10;;;;;;;4.97;2.20;;;5.90;86.40;;;;;;4959941;28;20047;-79
2021/03/09 08:44:21;;;;;;;6.32;2.42;;;6.00;86.30;;;;;;4961827;28;20049;-81
2021/03/09 08:47:12;;;;;;;6.03;3.00;;;6.00;86.10;;;;;;4956772;28;20042;-79
2021/03/09 08:49:46;;;;;;;4.05;1.88;;;6.10;86.00;;;;;;4918076;29;20043;-79
2021/03/09 08:52:39;;;;;;;2.70;1.48;;;6.30;86.00;;;;;;4933400;29;20051;-77
2021/03/09 08:55:06;;;;;;;4.68;1.90;;;6.20;86.00;;;;;;4934400;29;20136;-77
2021/03/09 08:57:32;;;;;;;3.47;1.70;;;6.30;86.00;;;;;;4934012;29;20071;-79
2021/03/09 09:00:08;;;;;;;3.22;1.30;;;6.30;85.90;;;;;;4933467;29;20545;-79
2021/03/09 09:02:40;;;;;;;2.38;1.30;;;6.30;85.90;;;;;;4932016;29;20050;-76
2021/03/09 09:05:09;;;;;;;2.47;1.33;;;6.50;85.90;;;;;;4934189;29;20507;-80
2021/03/09 09:07:39;;;;;;;2.40;1.42;;;6.40;85.80;;;;;;4934149;29;20095;-78
2021/03/09 09:10:22;;;;;;;2.42;1.30;;;6.50;85.90;;;;;;4935162;29;20075;-80
2021/03/09 09:12:56;;;;;;;2.22;1.20;;;6.50;85.80;;;;;;4925069;29;20036;-79
2021/03/09 09:15:33;;;;;;;2.22;1.08;;;6.70;85.90;;;;;;4892990;29;20037;-77
2021/03/09 09:18:03;;;;;;;1.52;0.90;;;6.70;85.80;;;;;;4864583;29;20045;-80
2021/03/09 09:20:34;;;;;;;1.67;0.75;;;6.70;85.80;;;;;;4911884;29;20063;-79
2021/03/09 09:23:10;;;;;;;2.83;0.90;;;6.70;85.80;;;;;;4935959;29;20099;-79
2021/03/09 09:28:46;;;;;;;2.60;0.98;;;6.80;85.90;;;;;;4917964;29;20043;-78
2021/03/09 09:31:19;;;;;;;1.33;0.60;;;6.80;85.90;;;;;;4899424;29;20067;-79
2021/03/09 09:33:53;;;;;;;1.38;0.75;;;6.80;86.00;;;;;;4933117;29;20043;-78
2021/03/09 09:36:20;;;;;;;0.90;0.80;;;6.90;86.10;;;;;;4917597;29;20426;-78
2021/03/09 09:38:55;;;;;;;0.85;0.60;;;6.90;85.90;;;;;;4932682;29;20067;-77
2021/03/09 09:41:39;;;;;;;2.08;0.90;;;7.10;86.00;;;;;;4933103;29;20472;-79
2021/03/09 09:44:05;;;;;;;1.30;0.90;;;7.00;85.70;;;;;;4919829;29;20144;-78
2021/03/09 09:46:31;;;;;;;0.73;0.60;;;7.20;85.70;;;;;;4944379;29;20421;-77
2021/03/09 09:48:58;;;;;;;1.67;0.70;;;7.20;85.60;;;;;;4953130;29;20090;-79
2021/03/09 09:51:25;;;;;;;1.38;0.77;;;7.40;85.50;;;;;;4936451;29;20898;-75
2021/03/09 09:53:52;;;;;;;0.88;0.75;;;7.30;85.30;;;;;;4952854;29;20040;-77
2021/03/09 09:56:25;;;;;;;1.35;0.70;;;7.30;85.40;;;;;;4956865;29;20059;-78
2021/03/09 09:58:57;;;;;;;1.75;0.60;;;7.20;85.40;;;;;;4958229;29;20062;-82
2021/03/09 10:01:42;;;;;;;0.77;0.60;;;7.30;85.40;;;;;;4941124;28;20042;-78
2021/03/09 10:04:10;;;;;;;0.98;0.70;;;7.40;85.60;;;;;;4972817;28;20389;-77
2021/03/09 10:06:40;;;;;;;0.88;0.65;;;7.30;85.30;;;;;;4971414;28;20496;-76
2021/03/09 10:09:13;;;;;;;1.15;0.80;;;7.40;85.30;;;;;;4972935;28;20093;-77
2021/03/09 10:11:54;;;;;;;0.50;0.50;;;7.60;85.40;;;;;;4956636;28;20502;-78
2021/03/09 10:14:22;;;;;;;0.50;0.47;;;7.50;85.10;;;;;;4976071;28;20107;-77
2021/03/09 10:16:49;;;;;;;1.67;0.52;;;7.60;85.10;;;;;;4977220;28;20093;-78
2021/03/09 10:19:18;;;;;;;0.60;0.50;;;7.60;84.90;;;;;;4977132;28;20038;-78
2021/03/09 10:21:45;;;;;;;1.13;0.70;;;7.50;84.90;;;;;;4975441;28;20049;-77
2021/03/09 10:24:20;;;;;;;0.63;0.50;;;7.50;85.10;;;;;;4974771;28;20034;-77
2021/03/09 10:26:48;;;;;;;0.98;0.60;;;7.40;85.20;;;;;;4972429;28;20074;-77
2021/03/09 10:29:16;;;;;;;0.57;0.57;;;7.40;85.40;;;;;;4971429;28;20035;-77
2021/03/09 10:31:51;;;;;;;0.80;0.70;;;7.40;85.50;;;;;;4973174;28;20042;-77
2021/03/09 10:34:20;;;;;;;0.80;0.55;;;7.40;85.70;;;;;;4971426;28;20035;-79
2021/03/09 10:37:02;;;;;;;1.20;0.60;;;7.40;85.80;;;;;;4972534;28;20039;-78
2021/03/09 10:39:31;;;;;;;0.50;0.50;;;7.30;85.90;;;;;;4972499;28;20061;-77
2021/03/09 10:41:58;;;;;;;0.57;0.47;;;7.40;85.90;;;;;;4970334;28;20043;-78
2021/03/09 10:44:29;;;;;;;0.85;0.52;;;7.30;85.80;;;;;;4976266;28;20062;-78
2021/03/09 10:46:55;;;;;;;0.30;0.30;;;7.30;86.10;;;;;;4956636;28;20401;-79
2021/03/09 10:49:21;;;;;;;1.05;0.50;;;7.30;85.80;;;;;;4972765;28;20527;-77
2021/03/09 10:51:47;;;;;;;0.77;0.68;;;7.30;85.90;;;;;;4955160;28;20038;-79
2021/03/09 10:54:18;;;;;;;0.40;0.40;;;7.20;85.70;;;;;;4972842;28;20046;-79
2021/03/09 10:56:44;;;;;;;0.30;0.30;;;7.30;85.60;;;;;;4954963;28;20042;-76
2021/03/09 10:59:09;;;;;;;0.40;0.40;;;7.30;85.60;;;;;;4955102;28;20054;-75
2021/03/09 11:01:46;;;;;;;0.50;0.32;;;7.40;85.60;;;;;;4936481;28;20034;-74
2021/03/09 11:04:12;;;;;;;0.40;0.22;;;7.40;85.50;;;;;;4927433;28;20031;-77
2021/03/09 11:06:38;;;;;;;0.20;0.20;;;7.40;85.50;;;;;;4955013;28;20039;-76
2021/03/09 11:09:04;;;;;;;0.20;0.20;;;7.50;85.40;;;;;;4954905;28;20045;-77
2021/03/09 11:11:29;;;;;;;0.40;0.28;;;7.50;85.30;;;;;;4955409;28;20416;-74
2021/03/09 11:13:55;;;;;;;0.10;0.10;;;7.70;85.30;;;;;;4971964;28;20045;-74
2021/03/09 11:16:21;;;;;;;0.20;0.20;;;7.60;85.20;;;;;;4972282;28;20039;-74
2021/03/09 11:18:46;;;;;;;0.20;0.20;;;7.60;85.10;;;;;;4972045;28;20493;-75
2021/03/09 11:21:12;;;;;;;0.22;0.22;;;7.60;85.10;;;;;;4972120;28;20094;-74
2021/03/09 11:23:39;;;;;;;0.20;0.20;;;7.60;85.10;;;;;;4956749;28;20053;-74
2021/03/09 11:26:06;;;;;;;0.28;0.20;;;7.60;85.10;;;;;;4971942;28;20051;-77
2021/03/09 11:28:33;;;;;;;0.20;0.20;;;7.70;85.10;;;;;;4970551;28;20039;-77
2021/03/09 11:30:59;;;;;;;0.80;0.43;;;7.80;84.90;;;;;;4972765;28;20045;-75
2021/03/09 11:33:25;;;;;;;0.47;0.30;;;7.80;84.70;;;;;;4974508;28;20117;-74
2021/03/09 11:35:50;;;;;;;0.20;0.20;;;7.80;84.60;;;;;;4971072;28;20123;-76
2021/03/09 11:38:16;;;;;;;0.30;0.30;;;7.80;84.50;;;;;;4954669;28;20074;-76
2021/03/09 11:40:42;;;;;;;0.20;0.20;;;7.80;84.50;;;;;;4970188;28;20477;-76
2021/03/09 11:43:08;;;;;;;0.38;0.30;;;7.90;84.50;;;;;;4952613;28;20086;-77
2021/03/09 11:45:34;;;;;;;0.47;0.20;;;7.90;84.30;;;;;;4971974;28;20472;-76
2021/03/09 11:47:59;;;;;;;0.38;0.38;;;7.80;84.30;;;;;;4971996;28;20038;-77
2021/03/09 11:50:25;;;;;;;0.28;0.28;;;7.90;84.30;;;;;;4960954;28;20035;-74
2021/03/09 11:52:51;;;;;;;0.20;0.20;;;7.80;84.30;;;;;;4974755;28;20038;-75
2021/03/09 11:55:16;;;;;;;0.90;0.40;;;7.70;84.40;;;;;;4979871;28;20389;-77
2021/03/09 11:57:42;;;;;;;0.40;0.40;;;7.80;84.60;;;;;;4969740;28;20034;-74
2021/03/09 12:00:08;;;;;;;0.38;0.20;;;7.50;84.70;;;;;;4977294;28;20948;-74
2021/03/09 12:02:34;;;;;;;0.28;0.20;;;7.50;85.10;;;;;;4974034;28;20097;-77
2021/03/09 12:05:00;;;;;;;0.30;0.30;;;7.40;85.20;;;;;;4975005;28;20481;-76
2021/03/09 12:07:26;;;;;;;0.30;0.20;;;7.30;85.30;;;;;;4974757;28;20380;-77
2021/03/09 12:09:51;;;;;;;0.10;0.10;;;7.30;85.30;;;;;;4957143;28;20138;-76
2021/03/09 12:12:17;;;;;;;0.30;0.30;;;7.20;85.40;;;;;;4974950;28;20081;-76
2021/03/09 12:14:43;;;;;;;0.13;0.13;;;7.30;85.50;;;;;;4957845;28;20034;-76
2021/03/09 12:17:09;;;;;;;0.32;0.30;;;7.30;85.50;;;;;;4974369;28;20113;-76
2021/03/09 12:19:35;;;;;;;0.17;0.15;;;7.30;85.40;;;;;;4974565;28;20069;-77
2021/03/09 12:22:00;;;;;;;0.30;0.30;;;7.40;85.30;;;;;;4974766;28;20478;-77
2021/03/09 12:24:26;;;;;;;0.10;0.10;;;7.60;85.20;;;;;;4941410;28;20042;-76
2021/03/09 12:26:54;;;;;;;0.15;0.10;;;7.70;85.10;;;;;;4974628;28;20122;-77
2021/03/09 12:29:20;;;;;;;0.30;0.20;;;7.80;84.90;;;;;;4958216;28;20039;-76
2021/03/09 12:31:46;;;;;;;0.10;0.10;;;7.80;84.40;;;;;;4957624;28;20401;-77
2021/03/09 12:34:11;;;;;;;0.32;0.25;;;7.80;84.10;;;;;;4974899;28;20058;-75
2021/03/09 12:36:55;;;;;;;0.17;0.15;;;7.90;84.10;;;;;;4974354;28;20038;-79
2021/03/09 12:39:21;;;;;;;0.10;0.10;;;7.90;84.00;;;;;;4956934;28;20513;-76
2021/03/09 12:42:58;;;;;;;0.85;0.20;;;7.90;84.00;;;;;;4955722;28;20042;-80
2021/03/09 12:45:41;;;;;;;0.10;0.10;;;7.90;84.00;;;;;;4930595;29;20597;-80
2021/03/09 12:48:08;;;;;;;0.30;0.20;;;7.90;83.90;;;;;;4857679;29;20046;-80
2021/03/09 12:50:37;;;;;;;0.20;0.20;;;7.90;83.80;;;;;;4828997;29;20496;-79
2021/03/09 12:53:02;;;;;;;0.10;0.10;;;7.80;83.70;;;;;;4827700;29;20129;-77
2021/03/09 12:55:30;;;;;;;0.10;0.10;;;7.70;83.80;;;;;;4860601;29;20049;-78
2021/03/09 12:57:56;;;;;;;0.20;0.20;;;7.80;83.90;;;;;;4850793;29;20045;-77
2021/03/09 13:00:30;;;;;;;0.10;0.10;;;7.80;84.00;;;;;;4849398;29;20041;-77
2021/03/09 13:05:44;;;;;;;0.20;0.20;;;7.70;83.90;;;;;;4848470;29;20037;-76
2021/03/09 13:08:12;;;;;;;0.20;0.20;;;7.80;83.80;;;;;;4862504;29;20120;-78
2021/03/09 13:10:38;;;;;;;0.35;0.20;;;7.80;83.90;;;;;;4890865;29;20040;-77
2021/03/09 13:13:11;;;;;;;0.10;0.10;;;7.80;83.90;;;;;;4928474;29;20055;-79
2021/03/09 13:15:37;;;;;;;0.10;0.10;;;7.60;83.90;;;;;;4900267;29;20123;-77
2021/03/09 13:18:03;;;;;;;0.20;0.20;;;7.70;84.10;;;;;;4921119;28;20103;-78
2021/03/09 13:20:28;;;;;;;0.20;0.15;;;7.70;84.20;;;;;;4977906;28;20042;-79
2021/03/09 13:22:54;;;;;;;0.32;0.20;;;7.80;84.30;;;;;;4979540;28;20069;-78